Melchior Schulte — 9V3053 — position and weather

sailwx.info

Track history (hours):
 
Tides and Currents Weather Stations Pressure Air Temp Water Temp Dewpoint Dewpoint Depression Visibility Wind Speed Wind Dir Waves Ship Positions

Melchior Schulte

Last reported at 2018-Aug-18 07:48 UTC. Time now 2018-Aug-20 16:20 UTC.
Position N 37°43' E 025°50'.

Length 190 m; draft 9.3 m.

Type: Ship (hazmat cat A). MMSI: 565382000.

Date/timePositionNaut miles runAvg speedWind from/ knotsBaromVisibWave heightAir tempDewpointWater temp
2018-Aug-18 07:48N 37°43' E 025°50'617.6
2018-Aug-18 07:27N 37°37' E 025°51'817.2
2018-Aug-18 07:00N 37°29' E 025°53'  
2018-Aug-12 15:33N 31°58' E 028°31'114.4
2018-Aug-12 15:30N 31°58' E 028°31'70517.0
2018-Aug-10 22:03N 36°15' E 015°17'118.5
2018-Aug-10 22:00N 36°15' E 015°16'918.7
2018-Aug-10 21:30N 36°18' E 015°05'918.8
2018-Aug-10 21:00N 36°20' E 014°54'918.7
2018-Aug-10 20:30N 36°23' E 014°42'918.7
2018-Aug-10 20:00N 36°26' E 014°31'918.6
2018-Aug-10 19:30N 36°29' E 014°21'918.5
2018-Aug-10 19:00N 36°32' E 014°10'918.7
2018-Aug-10 18:30N 36°34' E 013°58'918.6
2018-Aug-10 18:00N 36°37' E 013°47'918.5
2018-Aug-10 17:30N 36°39' E 013°36'918.3
2018-Aug-10 17:00N 36°42' E 013°25'918.2
2018-Aug-10 16:30N 36°45' E 013°15'918.0
2018-Aug-10 16:00N 36°49' E 013°04'917.9
2018-Aug-10 15:30N 36°52' E 012°54'917.9
2018-Aug-10 15:00N 36°55' E 012°43'917.8
2018-Aug-10 14:30N 36°56' E 012°32'918.0
2018-Aug-10 14:00N 36°58' E 012°21'918.0
2018-Aug-10 13:30N 37°02' E 012°11'917.5
2018-Aug-10 13:00N 37°06' E 012°01'22018.2
2018-Aug-10 00:54N 37°38' E 007°28'2417.8
2018-Aug-09 23:34N 37°36' E 006°58'617.8
2018-Aug-09 23:13N 37°36' E 006°50'1017.7
2018-Aug-09 22:40N 37°35' E 006°38'317.6
2018-Aug-09 22:30N 37°35' E 006°34'7117.7
2018-Aug-09 18:29N 37°30' E 005°05'1418.5
2018-Aug-09 17:42N 37°29' E 004°47'8917.5
2018-Aug-09 12:36N 37°23' E 002°54'217.7
2018-Aug-09 12:30N 37°22' E 002°52'917.8
2018-Aug-09 12:00N 37°20' E 002°41'918.0
2018-Aug-09 11:30N 37°17' E 002°30'2418.0
2018-Aug-09 10:10N 37°10' E 002°02'1518.8
2018-Aug-09 09:22N 37°06' E 001°44'719.2
2018-Aug-09 08:59N 37°04' E 001°35'1419.3
2018-Aug-09 08:15N 36°59' E 001°18'518.8
2018-Aug-09 08:00N 36°58' E 001°12'919.1
2018-Aug-09 07:30N 36°55' E 001°01'918.7
2018-Aug-09 07:00N 36°53' E 000°50'1018.4
2018-Aug-09 06:29N 36°50' E 000°38'918.3
2018-Aug-09 06:00N 36°47' E 000°28'918.1
2018-Aug-09 05:30N 36°44' E 000°17'917.9
2018-Aug-09 05:00N 36°42' E 000°06'2718.6
2018-Aug-09 03:34N 36°34' W 000°25'218.8
2018-Aug-09 03:29N 36°33' W 000°27'918.8
2018-Aug-09 03:00N 36°31' W 000°38'918.7
2018-Aug-09 02:30N 36°30' W 000°50'918.4
2018-Aug-09 02:00N 36°26' W 001°00'1918.8
2018-Aug-09 01:01N 36°20' W 001°22'019.4
2018-Aug-09 01:00N 36°20' W 001°22'1219.3
2018-Aug-09 00:23N 36°16' W 001°36'17118.9
2018-Aug-08 15:21N 36°03' W 005°08'618.3
2018-Aug-08 15:00N 36°03' W 005°15'815.0
2018-Aug-08 14:30N 36°06' W 005°24'2 4.2
2018-Aug-08 14:00N 36°08' W 005°25'0 0.0
2018-Aug-08 13:29N 36°08' W 005°25'0 0.0
2018-Aug-08 12:56N 36°08' W 005°25'0 0.0
2018-Aug-08 12:26N 36°08' W 005°25'0 0.0
2018-Aug-08 11:59N 36°08' W 005°25'0 0.0
2018-Aug-08 11:29N 36°08' W 005°25'0 0.0
2018-Aug-08 10:59N 36°08' W 005°25'0 0.0
2018-Aug-08 10:29N 36°08' W 005°25'0 0.0
2018-Aug-08 09:56N 36°08' W 005°25'0 0.0
2018-Aug-08 09:29N 36°08' W 005°25'0 0.0
2018-Aug-08 08:59N 36°08' W 005°25'0 0.0
2018-Aug-08 08:29N 36°08' W 005°25'0 0.0
2018-Aug-08 07:59N 36°08' W 005°25'  
Track history (hours):
 
Tides and Currents Weather Stations Pressure Air Temp Water Temp Dewpoint Dewpoint Depression Visibility Wind Speed Wind Dir Waves Ship Positions

Melchior Schulte

Last reported at 2018-Aug-18 07:48 UTC. Time now 2018-Aug-20 16:20 UTC.
Position N 37°43' E 025°50'.

Length 190 m; draft 9.3 m.

Type: Ship (hazmat cat A). MMSI: 565382000.

Date/timePositionNaut miles runAvg speedWind from/ knotsBaromVisibWave heightAir tempDewpointWater temp
2018-Aug-18 07:48N 37°43' E 025°50'617.6
2018-Aug-18 07:27N 37°37' E 025°51'817.2
2018-Aug-18 07:00N 37°29' E 025°53'  
2018-Aug-12 15:33N 31°58' E 028°31'114.4
2018-Aug-12 15:30N 31°58' E 028°31'70517.0
2018-Aug-10 22:03N 36°15' E 015°17'118.5
2018-Aug-10 22:00N 36°15' E 015°16'918.7
2018-Aug-10 21:30N 36°18' E 015°05'918.8
2018-Aug-10 21:00N 36°20' E 014°54'918.7
2018-Aug-10 20:30N 36°23' E 014°42'918.7
2018-Aug-10 20:00N 36°26' E 014°31'918.6
2018-Aug-10 19:30N 36°29' E 014°21'918.5
2018-Aug-10 19:00N 36°32' E 014°10'918.7
2018-Aug-10 18:30N 36°34' E 013°58'918.6
2018-Aug-10 18:00N 36°37' E 013°47'918.5
2018-Aug-10 17:30N 36°39' E 013°36'918.3
2018-Aug-10 17:00N 36°42' E 013°25'918.2
2018-Aug-10 16:30N 36°45' E 013°15'918.0
2018-Aug-10 16:00N 36°49' E 013°04'917.9
2018-Aug-10 15:30N 36°52' E 012°54'917.9
2018-Aug-10 15:00N 36°55' E 012°43'917.8
2018-Aug-10 14:30N 36°56' E 012°32'918.0
2018-Aug-10 14:00N 36°58' E 012°21'918.0
2018-Aug-10 13:30N 37°02' E 012°11'917.5
2018-Aug-10 13:00N 37°06' E 012°01'22018.2
2018-Aug-10 00:54N 37°38' E 007°28'2417.8
2018-Aug-09 23:34N 37°36' E 006°58'617.8
2018-Aug-09 23:13N 37°36' E 006°50'1017.7
2018-Aug-09 22:40N 37°35' E 006°38'317.6
2018-Aug-09 22:30N 37°35' E 006°34'7117.7
2018-Aug-09 18:29N 37°30' E 005°05'1418.5
2018-Aug-09 17:42N 37°29' E 004°47'8917.5
2018-Aug-09 12:36N 37°23' E 002°54'217.7
2018-Aug-09 12:30N 37°22' E 002°52'917.8
2018-Aug-09 12:00N 37°20' E 002°41'918.0
2018-Aug-09 11:30N 37°17' E 002°30'2418.0
2018-Aug-09 10:10N 37°10' E 002°02'1518.8
2018-Aug-09 09:22N 37°06' E 001°44'719.2
2018-Aug-09 08:59N 37°04' E 001°35'1419.3
2018-Aug-09 08:15N 36°59' E 001°18'518.8
2018-Aug-09 08:00N 36°58' E 001°12'919.1
2018-Aug-09 07:30N 36°55' E 001°01'918.7
2018-Aug-09 07:00N 36°53' E 000°50'1018.4
2018-Aug-09 06:29N 36°50' E 000°38'918.3
2018-Aug-09 06:00N 36°47' E 000°28'918.1
2018-Aug-09 05:30N 36°44' E 000°17'917.9
2018-Aug-09 05:00N 36°42' E 000°06'2718.6
2018-Aug-09 03:34N 36°34' W 000°25'218.8
2018-Aug-09 03:29N 36°33' W 000°27'918.8
2018-Aug-09 03:00N 36°31' W 000°38'918.7
2018-Aug-09 02:30N 36°30' W 000°50'918.4
2018-Aug-09 02:00N 36°26' W 001°00'1918.8
2018-Aug-09 01:01N 36°20' W 001°22'019.4
2018-Aug-09 01:00N 36°20' W 001°22'1219.3
2018-Aug-09 00:23N 36°16' W 001°36'17118.9
2018-Aug-08 15:21N 36°03' W 005°08'618.3
2018-Aug-08 15:00N 36°03' W 005°15'815.0
2018-Aug-08 14:30N 36°06' W 005°24'2 4.2
2018-Aug-08 14:00N 36°08' W 005°25'0 0.0
2018-Aug-08 13:29N 36°08' W 005°25'0 0.0
2018-Aug-08 12:56N 36°08' W 005°25'0 0.0
2018-Aug-08 12:26N 36°08' W 005°25'0 0.0
2018-Aug-08 11:59N 36°08' W 005°25'0 0.0
2018-Aug-08 11:29N 36°08' W 005°25'0 0.0
2018-Aug-08 10:59N 36°08' W 005°25'0 0.0
2018-Aug-08 10:29N 36°08' W 005°25'0 0.0
2018-Aug-08 09:56N 36°08' W 005°25'0 0.0
2018-Aug-08 09:29N 36°08' W 005°25'0 0.0
2018-Aug-08 08:59N 36°08' W 005°25'0 0.0
2018-Aug-08 08:29N 36°08' W 005°25'0 0.0
2018-Aug-08 07:59N 36°08' W 005°25'  

Dump ship's entire track history